createdAt,value
2019-01-16T00:01:40.975Z,98047.68
2019-01-16T00:04:41.089Z,98042.87
2019-01-16T00:07:34.600Z,98040.01
2019-01-16T00:10:21.426Z,98039.48
2019-01-16T00:13:08.368Z,98036.50
2019-01-16T00:15:53.560Z,98030.35
2019-01-16T00:18:38.391Z,98030.04
2019-01-16T00:21:29.477Z,98034.39
2019-01-16T00:24:23.873Z,98036.23
2019-01-16T00:27:21.051Z,98035.08
2019-01-16T00:30:07.937Z,98034.84
2019-01-16T00:32:49.099Z,98031.61
2019-01-16T00:35:36.107Z,98033.73
2019-01-16T00:38:25.134Z,98032.67
2019-01-16T00:41:19.447Z,98023.59
2019-01-16T00:44:05.970Z,98028.97
2019-01-16T00:47:03.183Z,98029.50
2019-01-16T00:49:51.540Z,98027.90
2019-01-16T00:52:39.844Z,98028.13
2019-01-16T00:55:31.392Z,98022.55
2019-01-16T00:58:19.686Z,98021.06
2019-01-16T01:01:14.158Z,98021.23
2019-01-16T01:04:02.465Z,98024.30
2019-01-16T01:07:06.014Z,98017.75
2019-01-16T01:10:12.229Z,98013.73
2019-01-16T01:13:09.378Z,98013.44
2019-01-16T01:15:57.670Z,98017.16
2019-01-16T01:18:54.758Z,98023.80
2019-01-16T01:21:41.772Z,98018.52
2019-01-16T01:24:33.926Z,98024.39
2019-01-16T01:27:30.976Z,98022.21
2019-01-16T01:30:22.287Z,98030.48
2019-01-16T01:33:08.961Z,98024.45
2019-01-16T01:36:12.253Z,98022.91
2019-01-16T01:38:49.271Z,98025.09
2019-01-16T01:41:37.584Z,98031.72
2019-01-16T01:44:20.887Z,98025.80
2019-01-16T01:47:11.957Z,98022.25
2019-01-16T01:49:53.148Z,98021.67
2019-01-16T01:52:39.949Z,98014.50
2019-01-16T01:55:31.053Z,98012.81
2019-01-16T01:58:21.433Z,98012.90
2019-01-16T02:01:18.590Z,98016.72
2019-01-16T02:04:18.433Z,98018.86
2019-01-16T02:07:09.840Z,98011.91
2019-01-16T02:10:03.986Z,98011.64
2019-01-16T02:12:41.132Z,98008.97
2019-01-16T02:15:40.047Z,98004.84
2019-01-16T02:18:27.039Z,98004.00
2019-01-16T02:21:21.377Z,97994.80
2019-01-16T02:24:01.801Z,97996.37
2019-01-16T02:26:56.081Z,97994.16
2019-01-16T02:29:47.579Z,97988.31
2019-01-16T02:32:38.069Z,97988.72
2019-01-16T02:35:29.427Z,97989.84
2019-01-16T02:38:21.173Z,97982.43
2019-01-16T02:41:06.221Z,97985.77
2019-01-16T02:43:57.381Z,97983.16
2019-01-16T02:46:48.745Z,97980.21
2019-01-16T02:49:29.105Z,97977.62
2019-01-16T02:52:16.007Z,97974.19
2019-01-16T02:55:07.169Z,97966.41
2019-01-16T02:57:54.654Z,97964.30
2019-01-16T03:00:34.718Z,97961.98
2019-01-16T03:03:16.694Z,97964.39
2019-01-16T03:05:54.913Z,97954.20
2019-01-16T03:08:40.892Z,97949.72
2019-01-16T03:11:44.143Z,97961.39
2019-01-16T03:14:32.438Z,97962.48
2019-01-16T03:17:26.672Z,97951.50
2019-01-16T03:20:26.977Z,97952.00
2019-01-16T03:23:07.575Z,97953.67
2019-01-16T03:25:45.039Z,97952.06
2019-01-16T03:28:33.354Z,97949.15
2019-01-16T03:31:24.808Z,97942.53
2019-01-16T03:34:13.114Z,97943.75
2019-01-16T03:36:59.841Z,97954.88
2019-01-16T03:40:06.122Z,97951.55
2019-01-16T03:43:06.364Z,97938.76
2019-01-16T03:45:51.536Z,97937.89
2019-01-16T03:48:39.833Z,97940.00
2019-01-16T03:51:28.153Z,97929.25
2019-01-16T03:54:16.469Z,97920.27
2019-01-16T03:57:16.747Z,97920.81
2019-01-16T04:00:04.964Z,97920.17
2019-01-16T04:02:51.765Z,97909.30
2019-01-16T04:05:38.701Z,97919.98
2019-01-16T04:08:25.688Z,97921.86
2019-01-16T04:11:23.186Z,97913.52
2019-01-16T04:14:10.244Z,97906.09
2019-01-16T04:16:56.936Z,97909.83
2019-01-16T04:19:36.486Z,97912.42
2019-01-16T04:22:22.224Z,97911.45
2019-01-16T04:25:19.377Z,97911.19
2019-01-16T04:28:06.155Z,97913.88
2019-01-16T04:30:53.175Z,97914.14
2019-01-16T04:33:47.913Z,97911.43
2019-01-16T04:36:45.352Z,97909.61
2019-01-16T04:39:33.648Z,97912.50
2019-01-16T04:42:11.214Z,97904.23
2019-01-16T04:44:57.876Z,97903.17
2019-01-16T04:47:40.522Z,97909.48
2019-01-16T04:50:23.859Z,97905.04
2019-01-16T04:53:13.316Z,97904.56
2019-01-16T04:56:00.288Z,97911.02
2019-01-16T04:58:47.031Z,97903.47
2019-01-16T05:01:34.021Z,97902.63
2019-01-16T05:04:20.854Z,97897.00
2019-01-16T05:07:11.938Z,97899.98
2019-01-16T05:10:03.081Z,97904.53
2019-01-16T05:12:48.347Z,97900.27
2019-01-16T05:15:25.197Z,97902.73
2019-01-16T05:18:13.518Z,97897.31
2019-01-16T05:21:01.184Z,97889.02
2019-01-16T05:23:49.482Z,97890.84
2019-01-16T05:26:37.046Z,97897.05
2019-01-16T05:29:25.644Z,97896.48
2019-01-16T05:32:16.691Z,97892.23
2019-01-16T05:35:04.999Z,97888.95
2019-01-16T05:37:56.380Z,97891.88
2019-01-16T05:40:45.356Z,97892.43
2019-01-16T05:43:26.369Z,97892.63
2019-01-16T05:46:26.583Z,97887.38
2019-01-16T05:49:23.875Z,97886.83
2019-01-16T05:52:27.429Z,97882.56
2019-01-16T05:55:18.547Z,97888.22
2019-01-16T05:58:25.890Z,97877.23
2019-01-16T06:01:26.280Z,97880.17
2019-01-16T06:04:13.265Z,97876.46
2019-01-16T06:07:10.431Z,97879.38
2019-01-16T06:09:53.363Z,97872.67
2019-01-16T06:12:47.767Z,97878.28
2019-01-16T06:15:32.940Z,97874.03
2019-01-16T06:18:30.430Z,97868.17
2019-01-16T06:21:17.188Z,97864.13
2019-01-16T06:24:04.278Z,97868.67
2019-01-16T06:27:01.748Z,97859.84
2019-01-16T06:29:53.230Z,97866.78
2019-01-16T06:32:45.591Z,97862.30
2019-01-16T06:35:27.127Z,97861.98
2019-01-16T06:38:20.730Z,97858.98
2019-01-16T06:41:14.874Z,97857.09
2019-01-16T06:43:55.676Z,97851.16
2019-01-16T06:46:43.991Z,97851.23
2019-01-16T06:49:30.934Z,97857.00
2019-01-16T06:52:12.197Z,97855.43
2019-01-16T06:54:57.735Z,97855.53
2019-01-16T06:57:44.531Z,97859.58
2019-01-16T07:00:32.086Z,97852.84
2019-01-16T07:03:19.055Z,97848.56
2019-01-16T07:06:09.940Z,97849.36
2019-01-16T07:09:07.361Z,97858.98
2019-01-16T07:11:47.239Z,97851.31
2019-01-16T07:14:53.794Z,97846.38
2019-01-16T07:17:33.479Z,97854.13
2019-01-16T07:20:17.929Z,97850.98
2019-01-16T07:22:54.837Z,97862.97
2019-01-16T07:25:55.219Z,97855.97
2019-01-16T07:28:46.561Z,97855.91
2019-01-16T07:31:33.750Z,97852.36
2019-01-16T07:34:20.707Z,97855.33
2019-01-16T07:37:15.574Z,97859.83
2019-01-16T07:40:02.261Z,97857.47
2019-01-16T07:42:47.278Z,97849.45
2019-01-16T07:45:50.563Z,97846.02
2019-01-16T07:48:37.536Z,97848.75
2019-01-16T07:51:24.426Z,97862.28
2019-01-16T07:54:24.747Z,97861.63
2019-01-16T07:57:24.976Z,97860.08
2019-01-16T08:00:31.547Z,97861.36
2019-01-16T08:03:30.201Z,97855.16
2019-01-16T08:06:33.263Z,97866.38
2019-01-16T08:09:20.373Z,97870.20
2019-01-16T08:12:14.795Z,97863.95
2019-01-16T08:15:21.388Z,97865.05
2019-01-16T08:18:02.749Z,97868.25
2019-01-16T08:20:55.871Z,97867.45
2019-01-16T08:23:53.284Z,97875.16
2019-01-16T08:26:47.436Z,97875.70
2019-01-16T08:29:41.893Z,97879.27
2019-01-16T08:32:39.321Z,97866.75
2019-01-16T08:35:23.471Z,97872.66
2019-01-16T08:38:03.038Z,97872.34
2019-01-16T08:40:59.973Z,97865.47
2019-01-16T08:43:41.082Z,97870.29
2019-01-16T08:46:32.179Z,97867.11
2019-01-16T08:49:19.140Z,97873.24
2019-01-16T08:52:22.713Z,97864.73
2019-01-16T08:55:13.853Z,97872.98
2019-01-16T08:58:14.281Z,97870.29
2019-01-16T09:01:03.297Z,97861.25
2019-01-16T09:04:04.149Z,97868.74
2019-01-16T09:07:04.546Z,97867.09
2019-01-16T09:09:52.853Z,97864.39
2019-01-16T09:12:30.938Z,97854.25
2019-01-16T09:15:17.715Z,97857.47
2019-01-16T09:17:58.039Z,97851.31
2019-01-16T09:20:49.183Z,97850.03
2019-01-16T09:23:44.003Z,97846.80
2019-01-16T09:26:32.360Z,97849.16
2019-01-16T09:29:33.025Z,97848.93
2019-01-16T09:32:13.591Z,97846.55
2019-01-16T09:35:08.066Z,97841.69
2019-01-16T09:37:56.350Z,97847.89
2019-01-16T09:40:36.286Z,97839.02
2019-01-16T09:43:36.759Z,97832.09
2019-01-16T09:46:28.628Z,97822.19
2019-01-16T09:49:23.063Z,97822.44
2019-01-16T09:51:59.336Z,97825.12
2019-01-16T09:54:56.476Z,97822.67
2019-01-16T09:57:43.464Z,97818.36
2019-01-16T10:00:33.779Z,97822.40
2019-01-16T10:03:25.238Z,97820.45
2019-01-16T10:06:09.221Z,97807.67
2019-01-16T10:08:56.053Z,97804.53
2019-01-16T10:11:47.246Z,97805.30
2019-01-16T10:14:34.362Z,97789.31
2019-01-16T10:17:19.943Z,97787.07
2019-01-16T10:20:08.673Z,97784.59
2019-01-16T10:23:03.029Z,97782.45
2019-01-16T10:25:49.601Z,97784.88
2019-01-16T10:28:37.906Z,97772.22
2019-01-16T10:31:35.481Z,97766.89
2019-01-16T10:34:28.383Z,97754.97
2019-01-16T10:37:15.205Z,97751.23
2019-01-16T10:40:09.612Z,97752.05
2019-01-16T10:42:56.001Z,97750.49
2019-01-16T10:45:42.745Z,97743.28
2019-01-16T10:48:36.884Z,97735.52
2019-01-16T10:51:23.804Z,97721.11
2019-01-16T10:53:55.325Z,97709.81
2019-01-16T10:56:49.850Z,97708.61
2019-01-16T10:59:38.017Z,97701.75
2019-01-16T11:02:14.978Z,97703.95
2019-01-16T11:05:01.853Z,97696.50
2019-01-16T11:07:43.145Z,97684.44
2019-01-16T11:10:31.557Z,97679.51
2019-01-16T11:13:19.844Z,97685.73
2019-01-16T11:16:11.902Z,97686.63
2019-01-16T11:18:58.937Z,97677.51
2019-01-16T11:21:50.343Z,97685.71
2019-01-16T11:24:37.267Z,97687.48
2019-01-16T11:27:24.517Z,97685.39
2019-01-16T11:30:11.465Z,97682.45
2019-01-16T11:32:57.773Z,97666.23
2019-01-16T11:35:53.782Z,97659.59
2019-01-16T11:38:40.899Z,97654.25
2019-01-16T11:41:25.052Z,97654.42
2019-01-16T11:44:19.006Z,97647.52
2019-01-16T11:47:06.099Z,97634.63
2019-01-16T11:50:09.404Z,97638.63
2019-01-16T11:53:03.341Z,97628.45
2019-01-16T11:55:50.219Z,97617.81
2019-01-16T11:58:53.537Z,97612.69
2019-01-16T12:01:59.568Z,97606.78
2019-01-16T12:05:05.866Z,97602.83
2019-01-16T12:07:54.300Z,97584.52
2019-01-16T12:10:42.801Z,97573.78
2019-01-16T12:13:29.560Z,97578.48
2019-01-16T12:16:35.807Z,97578.36
2019-01-16T12:19:18.869Z,97581.62
2019-01-16T12:22:08.255Z,97582.88
2019-01-16T12:25:01.243Z,97582.22
2019-01-16T12:27:48.010Z,97571.27
2019-01-16T12:30:57.753Z,97563.95
2019-01-16T12:33:40.892Z,97547.50
2019-01-16T12:36:24.144Z,97535.92
2019-01-16T12:39:27.725Z,97522.16
2019-01-16T12:42:24.894Z,97527.81
2019-01-16T12:45:20.493Z,97521.75
2019-01-16T12:48:08.921Z,97513.88
2019-01-16T12:51:15.519Z,97513.94
2019-01-16T12:54:02.222Z,97502.45
2019-01-16T12:56:51.775Z,97492.74
2019-01-16T12:59:34.288Z,97492.74
2019-01-16T13:02:28.925Z,97491.48
2019-01-16T13:05:11.450Z,97478.92
2019-01-16T13:07:58.246Z,97472.81
2019-01-16T13:10:41.102Z,97470.55
2019-01-16T13:13:44.371Z,97475.34
2019-01-16T13:16:24.561Z,97477.70
2019-01-16T13:19:24.945Z,97472.77
2019-01-16T13:22:16.557Z,97477.45
2019-01-16T13:25:19.881Z,97484.30
2019-01-16T13:28:09.101Z,97485.66
2019-01-16T13:30:48.167Z,97483.87
2019-01-16T13:33:26.293Z,97479.10
2019-01-16T13:36:14.690Z,97473.69
2019-01-16T13:39:03.087Z,97477.95
2019-01-16T13:41:46.316Z,97475.82
2019-01-16T13:44:32.055Z,97478.90
2019-01-16T13:47:23.466Z,97481.91
2019-01-16T13:50:14.560Z,97481.97
2019-01-16T13:53:02.726Z,97475.42
2019-01-16T13:55:57.295Z,97483.38
2019-01-16T13:58:48.525Z,97476.76
2019-01-16T14:01:36.872Z,97479.59
2019-01-16T14:04:12.549Z,97484.28
2019-01-16T14:07:10.025Z,97480.94
2019-01-16T14:10:02.041Z,97470.59
2019-01-16T14:13:02.358Z,97468.81
2019-01-16T14:16:05.845Z,97462.60
2019-01-16T14:19:02.573Z,97462.60
2019-01-16T14:22:05.149Z,97448.22
2019-01-16T14:24:43.707Z,97448.72
2019-01-16T14:27:31.021Z,97445.91
2019-01-16T14:30:18.034Z,97448.91
2019-01-16T14:33:05.174Z,97433.03
2019-01-16T14:35:59.583Z,97421.45
2019-01-16T14:38:46.410Z,97416.34
2019-01-16T14:41:33.426Z,97414.89
2019-01-16T14:44:30.871Z,97407.88
2019-01-16T14:47:20.317Z,97416.27
2019-01-16T14:50:14.817Z,97403.17
2019-01-16T14:53:03.558Z,97392.25
2019-01-16T14:55:57.874Z,97391.23
2019-01-16T14:58:48.986Z,97393.89
2019-01-16T15:01:43.351Z,97389.98
2019-01-16T15:04:30.416Z,97388.84
2019-01-16T15:07:18.391Z,97390.97
2019-01-16T15:09:59.026Z,97383.92
2019-01-16T15:12:50.766Z,97379.81
2019-01-16T15:15:36.217Z,97379.98
2019-01-16T15:18:22.982Z,97374.03
2019-01-16T15:21:26.436Z,97380.00
2019-01-16T15:24:14.767Z,97388.77
2019-01-16T15:27:12.031Z,97386.00
2019-01-16T15:29:51.249Z,97381.05
2019-01-16T15:32:42.610Z,97377.42
2019-01-16T15:35:30.961Z,97367.04
2019-01-16T15:38:17.814Z,97384.27
2019-01-16T15:41:15.255Z,97374.97
2019-01-16T15:44:09.445Z,97372.63
2019-01-16T15:47:03.850Z,97363.38
2019-01-16T15:49:58.011Z,97371.42
2019-01-16T15:52:50.268Z,97370.97
2019-01-16T15:55:38.596Z,97364.47
2019-01-16T15:58:29.913Z,97366.53
2019-01-16T16:01:18.234Z,97366.57
2019-01-16T16:04:10.502Z,97365.98
2019-01-16T16:07:04.934Z,97368.53
2019-01-16T16:09:40.391Z,97369.30
2019-01-16T16:12:27.183Z,97358.37
2019-01-16T16:15:13.977Z,97352.51
2019-01-16T16:18:02.297Z,97354.14
2019-01-16T16:20:49.213Z,97354.18
2019-01-16T16:23:33.950Z,97355.64
2019-01-16T16:26:12.527Z,97353.08
2019-01-16T16:28:57.045Z,97354.73
2019-01-16T16:31:45.333Z,97351.96
2019-01-16T16:34:40.819Z,97347.55
2019-01-16T16:37:31.963Z,97338.55
2019-01-16T16:40:14.797Z,97341.77
2019-01-16T16:43:01.589Z,97336.78
2019-01-16T16:46:05.100Z,97338.08
2019-01-16T16:48:59.235Z,97339.48
2019-01-16T16:51:53.598Z,97342.23
2019-01-16T16:54:40.401Z,97341.02
2019-01-16T16:57:27.097Z,97335.92
2019-01-16T17:00:28.435Z,97335.38
2019-01-16T17:03:16.786Z,97334.33
2019-01-16T17:06:03.736Z,97323.63
2019-01-16T17:08:57.003Z,97321.84
2019-01-16T17:11:57.228Z,97322.64
2019-01-16T17:14:57.773Z,97312.80
2019-01-16T17:17:51.878Z,97313.62
2019-01-16T17:20:52.134Z,97312.30
2019-01-16T17:23:49.677Z,97302.97
2019-01-16T17:26:43.861Z,97301.42
2019-01-16T17:29:44.330Z,97291.28
2019-01-16T17:32:40.260Z,97289.00
2019-01-16T17:35:37.688Z,97284.22
2019-01-16T17:38:26.118Z,97284.38
2019-01-16T17:41:14.405Z,97272.06
2019-01-16T17:44:05.326Z,97275.12
2019-01-16T17:46:51.251Z,97269.16
2019-01-16T17:49:42.376Z,97265.66
2019-01-16T17:52:29.415Z,97267.38
2019-01-16T17:55:23.644Z,97267.09
2019-01-16T17:58:10.215Z,97262.36
2019-01-16T18:01:13.557Z,97263.95
2019-01-16T18:04:16.698Z,97255.22
2019-01-16T18:06:56.553Z,97258.21
2019-01-16T18:09:39.158Z,97253.89
2019-01-16T18:12:23.782Z,97250.70
2019-01-16T18:15:15.162Z,97251.72
2019-01-16T18:18:12.354Z,97241.66
2019-01-16T18:20:48.697Z,97246.19
2019-01-16T18:23:41.133Z,97236.55
2019-01-16T18:26:32.472Z,97231.06
2019-01-16T18:29:29.663Z,97239.08
2019-01-16T18:32:16.691Z,97237.43
2019-01-16T18:35:00.543Z,97229.61
2019-01-16T18:37:47.820Z,97226.97
2019-01-16T18:40:54.901Z,97234.44
2019-01-16T18:43:43.213Z,97223.18
2019-01-16T18:46:30.008Z,97220.25
2019-01-16T18:49:08.315Z,97225.46
2019-01-16T18:51:56.625Z,97216.11
2019-01-16T18:54:56.883Z,97217.98
2019-01-16T18:57:34.124Z,97214.83
2019-01-16T19:00:31.653Z,97206.98
2019-01-16T19:03:28.551Z,97196.30
2019-01-16T19:06:29.194Z,97199.02
2019-01-16T19:09:15.953Z,97192.86
2019-01-16T19:12:07.036Z,97189.11
2019-01-16T19:14:47.969Z,97191.52
2019-01-16T19:17:36.262Z,97186.23
2019-01-16T19:20:34.378Z,97183.38
2019-01-16T19:23:25.010Z,97178.73
2019-01-16T19:26:16.385Z,97179.84
2019-01-16T19:29:07.803Z,97175.02
2019-01-16T19:31:58.913Z,97167.03
2019-01-16T19:34:48.234Z,97163.54
2019-01-16T19:37:42.661Z,97167.62
2019-01-16T19:40:21.226Z,97164.17
2019-01-16T19:43:08.063Z,97159.91
2019-01-16T19:45:59.177Z,97166.68
2019-01-16T19:48:42.782Z,97161.03
2019-01-16T19:51:46.309Z,97167.45
2019-01-16T19:54:34.642Z,97160.20
2019-01-16T19:57:29.186Z,97159.91
2019-01-16T20:00:17.510Z,97166.36
2019-01-16T20:03:04.605Z,97161.30
2019-01-16T20:05:55.765Z,97165.34
2019-01-16T20:08:42.781Z,97165.02
2019-01-16T20:11:33.937Z,97165.87
2019-01-16T20:14:33.470Z,97164.61
2019-01-16T20:17:20.710Z,97163.48
2019-01-16T20:20:07.694Z,97158.45
2019-01-16T20:23:14.046Z,97152.62
2019-01-16T20:26:01.050Z,97154.70
2019-01-16T20:28:47.874Z,97144.30
2019-01-16T20:31:48.170Z,97144.66
2019-01-16T20:34:48.670Z,97143.09
2019-01-16T20:37:35.686Z,97146.56
2019-01-16T20:40:25.239Z,97151.60
2019-01-16T20:43:25.979Z,97146.30
2019-01-16T20:46:12.789Z,97153.45
2019-01-16T20:49:16.477Z,97152.14
2019-01-16T20:52:13.212Z,97150.29
2019-01-16T20:55:01.621Z,97150.59
2019-01-16T20:57:52.998Z,97147.40
2019-01-16T21:00:40.343Z,97141.80
2019-01-16T21:03:38.123Z,97143.39
2019-01-16T21:06:24.989Z,97147.92
2019-01-16T21:09:14.545Z,97148.23
2019-01-16T21:12:21.056Z,97144.99
2019-01-16T21:15:21.419Z,97144.52
2019-01-16T21:18:03.039Z,97141.25
2019-01-16T21:20:49.931Z,97148.19
2019-01-16T21:23:34.300Z,97143.39
2019-01-16T21:26:28.752Z,97147.88
2019-01-16T21:29:25.999Z,97150.13
2019-01-16T21:32:17.469Z,97157.06
2019-01-16T21:35:11.977Z,97153.29
2019-01-16T21:38:00.367Z,97160.23
2019-01-16T21:40:54.551Z,97151.16
2019-01-16T21:43:48.694Z,97143.44
2019-01-16T21:46:39.815Z,97150.13
2019-01-16T21:49:34.258Z,97139.47
2019-01-16T21:52:37.739Z,97130.13
2019-01-16T21:55:16.849Z,97131.45
2019-01-16T21:57:59.399Z,97125.63
2019-01-16T22:00:46.103Z,97118.13
2019-01-16T22:03:35.775Z,97113.55
2019-01-16T22:06:23.030Z,97110.97
2019-01-16T22:09:15.281Z,97107.47
2019-01-16T22:12:09.656Z,97104.24
2019-01-16T22:15:06.347Z,97108.56
2019-01-16T22:18:06.694Z,97093.70
2019-01-16T22:21:10.222Z,97098.18
2019-01-16T22:24:00.389Z,97097.37
2019-01-16T22:26:45.421Z,97100.83
2019-01-16T22:29:32.181Z,97092.05
2019-01-16T22:32:09.566Z,97095.27
2019-01-16T22:35:01.066Z,97093.09
2019-01-16T22:37:52.824Z,97092.05
2019-01-16T22:40:41.449Z,97098.41
2019-01-16T22:43:32.532Z,97086.17
2019-01-16T22:46:30.090Z,97082.16
2019-01-16T22:49:25.255Z,97082.14
2019-01-16T22:52:12.060Z,97083.00
2019-01-16T22:55:18.629Z,97076.33
2019-01-16T22:58:06.948Z,97070.75
2019-01-16T23:01:00.286Z,97075.25
2019-01-16T23:03:50.302Z,97064.89
2019-01-16T23:06:47.353Z,97066.18
2019-01-16T23:09:44.701Z,97065.86
2019-01-16T23:12:31.449Z,97063.69
2019-01-16T23:15:18.361Z,97062.34
2019-01-16T23:18:21.917Z,97056.14
2019-01-16T23:21:19.467Z,97056.14
2019-01-16T23:23:55.268Z,97051.39
2019-01-16T23:26:55.712Z,97044.39
2019-01-16T23:29:34.877Z,97043.11
2019-01-16T23:32:20.381Z,97048.81
2019-01-16T23:35:08.679Z,97054.08
2019-01-16T23:38:06.063Z,97042.17
2019-01-16T23:40:57.393Z,97048.23
2019-01-16T23:44:00.667Z,97049.13
2019-01-16T23:46:49.287Z,97043.48
2019-01-16T23:49:38.333Z,97044.59
2019-01-16T23:52:29.486Z,97042.70
2019-01-16T23:55:14.770Z,97035.95
2019-01-16T23:58:01.451Z,97037.23
